createdAt,value
2019-01-27T00:00:55.239Z,71.99
2019-01-27T00:01:58.905Z,71.98
2019-01-27T00:03:02.496Z,71.97
2019-01-27T00:04:06.463Z,71.97
2019-01-27T00:05:10.029Z,71.96
2019-01-27T00:06:13.643Z,71.92
2019-01-27T00:07:17.133Z,71.81
2019-01-27T00:08:20.680Z,71.84
2019-01-27T00:09:24.155Z,71.89
2019-01-27T00:10:27.663Z,71.85
2019-01-27T00:11:31.229Z,71.80
2019-01-27T00:12:34.747Z,71.85
2019-01-27T00:13:38.337Z,71.89
2019-01-27T00:14:41.913Z,71.96
2019-01-27T00:15:45.411Z,72.03
2019-01-27T00:16:48.900Z,72.09
2019-01-27T00:17:52.397Z,72.19
2019-01-27T00:18:55.910Z,72.13
2019-01-27T00:19:59.474Z,72.15
2019-01-27T00:21:02.990Z,72.04
2019-01-27T00:22:06.540Z,71.98
2019-01-27T00:23:09.965Z,71.95
2019-01-27T00:24:13.489Z,71.91
2019-01-27T00:25:17.468Z,71.94
2019-01-27T00:26:21.186Z,71.98
2019-01-27T00:27:24.846Z,71.98
2019-01-27T00:28:28.426Z,71.83
2019-01-27T00:29:32.014Z,71.93
2019-01-27T00:30:35.485Z,71.89
2019-01-27T00:31:38.991Z,71.86
2019-01-27T00:32:42.505Z,72.02
2019-01-27T00:33:46.135Z,72.13
2019-01-27T00:34:49.589Z,72.12
2019-01-27T00:35:53.165Z,72.13
2019-01-27T00:36:56.708Z,72.10
2019-01-27T00:38:00.176Z,72.08
2019-01-27T00:39:05.193Z,72.28
2019-01-27T00:40:11.134Z,72.47
2019-01-27T00:41:14.816Z,72.36
2019-01-27T00:42:18.288Z,72.62
2019-01-27T00:43:21.836Z,73.44
2019-01-27T00:44:25.420Z,73.45
2019-01-27T00:45:28.964Z,73.63
2019-01-27T00:46:32.578Z,74.23
2019-01-27T00:47:36.008Z,74.04
2019-01-27T00:48:39.502Z,74.12
2019-01-27T00:49:43.072Z,73.96
2019-01-27T00:50:46.565Z,74.43
2019-01-27T00:51:50.128Z,74.29
2019-01-27T00:52:53.636Z,74.05
2019-01-27T00:53:57.098Z,73.81
2019-01-27T00:55:00.607Z,73.83
2019-01-27T00:56:04.230Z,73.83
2019-01-27T00:57:07.689Z,73.70
2019-01-27T00:58:11.253Z,73.64
2019-01-27T00:59:14.767Z,73.49
2019-01-27T01:00:21.379Z,73.39
2019-01-27T01:01:25.106Z,73.61
2019-01-27T01:02:28.662Z,73.60
2019-01-27T01:03:32.176Z,73.59
2019-01-27T01:04:35.709Z,73.96
2019-01-27T01:05:39.283Z,74.36
2019-01-27T01:06:43.044Z,74.28
2019-01-27T01:07:47.030Z,74.57
2019-01-27T01:08:50.538Z,74.58
2019-01-27T01:09:54.112Z,74.17
2019-01-27T01:10:57.629Z,74.16
2019-01-27T01:12:01.225Z,73.98
2019-01-27T01:13:05.423Z,73.79
2019-01-27T01:14:08.985Z,73.67
2019-01-27T01:15:12.935Z,73.55
2019-01-27T01:16:16.488Z,73.38
2019-01-27T01:17:20.072Z,73.35
2019-01-27T01:18:23.706Z,73.16
2019-01-27T01:19:27.355Z,73.04
2019-01-27T01:20:30.918Z,73.04
2019-01-27T01:21:34.567Z,72.96
2019-01-27T01:22:38.145Z,72.98
2019-01-27T01:23:41.749Z,73.07
2019-01-27T01:24:45.204Z,73.06
2019-01-27T01:25:48.768Z,72.97
2019-01-27T01:26:52.211Z,72.95
2019-01-27T01:27:55.805Z,72.84
2019-01-27T01:28:59.376Z,72.78
2019-01-27T01:30:03.050Z,72.71
2019-01-27T01:31:06.597Z,72.56
2019-01-27T01:32:10.093Z,72.48
2019-01-27T01:33:13.548Z,72.51
2019-01-27T01:34:16.983Z,72.59
2019-01-27T01:35:20.516Z,72.59
2019-01-27T01:36:24.116Z,72.56
2019-01-27T01:37:27.674Z,72.50
2019-01-27T01:38:31.207Z,72.46
2019-01-27T01:39:34.623Z,72.44
2019-01-27T01:40:38.055Z,72.52
2019-01-27T01:41:41.560Z,72.63
2019-01-27T01:42:45.155Z,72.62
2019-01-27T01:43:48.645Z,72.66
2019-01-27T01:44:52.152Z,72.75
2019-01-27T01:45:55.645Z,72.89
2019-01-27T01:46:59.207Z,72.89
2019-01-27T01:48:03.250Z,72.84
2019-01-27T01:49:06.755Z,72.95
2019-01-27T01:50:10.341Z,73.12
2019-01-27T01:51:13.772Z,73.05
2019-01-27T01:52:17.300Z,73.02
2019-01-27T01:53:20.735Z,73.00
2019-01-27T01:54:24.251Z,72.96
2019-01-27T01:55:27.842Z,72.82
2019-01-27T01:56:31.337Z,72.85
2019-01-27T01:57:34.781Z,72.80
2019-01-27T01:58:38.216Z,73.01
2019-01-27T01:59:41.661Z,73.05
2019-01-27T02:00:45.183Z,73.04
2019-01-27T02:01:48.754Z,73.26
2019-01-27T02:02:52.372Z,73.14
2019-01-27T02:03:55.891Z,73.07
2019-01-27T02:04:59.470Z,73.04
2019-01-27T02:06:03.039Z,73.07
2019-01-27T02:07:06.598Z,73.12
2019-01-27T02:08:10.097Z,73.10
2019-01-27T02:09:13.646Z,73.08
2019-01-27T02:10:19.398Z,73.79
2019-01-27T02:11:23.028Z,74.07
2019-01-27T02:12:26.567Z,74.05
2019-01-27T02:13:30.118Z,74.04
2019-01-27T02:14:33.634Z,74.45
2019-01-27T02:15:43.089Z,74.22
2019-01-27T02:16:46.521Z,74.30
2019-01-27T02:17:50.087Z,74.12
2019-01-27T02:18:53.729Z,74.00
2019-01-27T02:19:57.188Z,73.75
2019-01-27T02:21:00.745Z,73.58
2019-01-27T02:22:04.436Z,73.54
2019-01-27T02:23:07.878Z,74.04
2019-01-27T02:24:11.382Z,73.98
2019-01-27T02:25:14.897Z,73.96
2019-01-27T02:26:18.350Z,73.92
2019-01-27T02:27:21.844Z,73.81
2019-01-27T02:28:25.421Z,73.77
2019-01-27T02:29:29.047Z,73.53
2019-01-27T02:30:32.539Z,73.55
2019-01-27T02:31:36.128Z,73.48
2019-01-27T02:32:39.811Z,73.35
2019-01-27T02:33:43.343Z,73.33
2019-01-27T02:34:46.820Z,73.29
2019-01-27T02:35:50.409Z,73.25
2019-01-27T02:36:53.953Z,73.22
2019-01-27T02:37:57.371Z,73.31
2019-01-27T02:39:00.795Z,73.24
2019-01-27T02:40:06.874Z,73.17
2019-01-27T02:41:10.390Z,73.25
2019-01-27T02:42:13.821Z,73.25
2019-01-27T02:43:17.486Z,73.16
2019-01-27T02:44:20.916Z,73.20
2019-01-27T02:45:24.421Z,73.05
2019-01-27T02:46:28.393Z,73.01
2019-01-27T02:47:31.825Z,72.87
2019-01-27T02:48:35.415Z,72.77
2019-01-27T02:49:38.984Z,72.79
2019-01-27T02:50:42.491Z,72.74
2019-01-27T02:51:45.949Z,72.68
2019-01-27T02:52:49.493Z,72.77
2019-01-27T02:53:52.929Z,72.88
2019-01-27T02:54:56.445Z,72.93
2019-01-27T02:56:00.018Z,72.90
2019-01-27T02:57:03.535Z,72.96
2019-01-27T02:58:07.087Z,72.97
2019-01-27T02:59:10.604Z,72.87
2019-01-27T03:00:19.554Z,72.83
2019-01-27T03:01:23.041Z,72.77
2019-01-27T03:02:26.586Z,72.80
2019-01-27T03:03:30.129Z,72.73
2019-01-27T03:04:33.576Z,72.77
2019-01-27T03:05:56.889Z,72.68
2019-01-27T03:07:02.234Z,72.57
2019-01-27T03:08:06.492Z,72.70
2019-01-27T03:09:11.333Z,72.77
2019-01-27T03:10:16.641Z,73.54
2019-01-27T03:11:20.220Z,73.59
2019-01-27T03:12:23.748Z,73.77
2019-01-27T03:13:27.252Z,74.24
2019-01-27T03:14:30.747Z,74.40
2019-01-27T03:15:34.240Z,74.84
2019-01-27T03:16:37.677Z,74.97
2019-01-27T03:17:41.218Z,75.25
2019-01-27T03:18:44.719Z,75.09
2019-01-27T03:19:48.214Z,75.01
2019-01-27T03:20:51.757Z,75.00
2019-01-27T03:21:55.248Z,74.93
2019-01-27T03:22:58.775Z,74.97
2019-01-27T03:24:02.306Z,75.04
2019-01-27T03:25:08.767Z,75.02
2019-01-27T03:26:12.270Z,75.03
2019-01-27T03:27:15.710Z,75.33
2019-01-27T03:28:19.237Z,75.38
2019-01-27T03:29:22.729Z,75.36
2019-01-27T03:30:26.157Z,75.08
2019-01-27T03:31:29.580Z,75.06
2019-01-27T03:32:33.075Z,75.10
2019-01-27T03:33:36.695Z,75.02
2019-01-27T03:34:40.227Z,74.88
2019-01-27T03:35:43.752Z,74.69
2019-01-27T03:36:47.354Z,74.57
2019-01-27T03:37:50.823Z,74.35
2019-01-27T03:38:54.279Z,74.41
2019-01-27T03:39:57.720Z,74.26
2019-01-27T03:41:01.231Z,74.12
2019-01-27T03:42:05.293Z,74.00
2019-01-27T03:43:08.879Z,73.97
2019-01-27T03:44:12.325Z,74.01
2019-01-27T03:45:20.003Z,74.14
2019-01-27T03:46:23.499Z,74.02
2019-01-27T03:47:27.002Z,74.06
2019-01-27T03:48:30.566Z,74.09
2019-01-27T03:49:34.026Z,74.17
2019-01-27T03:50:37.570Z,74.06
2019-01-27T03:51:41.136Z,73.97
2019-01-27T03:52:44.707Z,73.89
2019-01-27T03:53:48.155Z,73.60
2019-01-27T03:54:51.607Z,73.43
2019-01-27T03:55:55.118Z,73.34
2019-01-27T03:56:58.564Z,72.96
2019-01-27T03:58:02.026Z,73.00
2019-01-27T03:59:05.583Z,72.87
2019-01-27T04:00:12.096Z,72.87
2019-01-27T04:01:15.532Z,72.86
2019-01-27T04:02:18.957Z,72.88
2019-01-27T04:03:22.395Z,72.82
2019-01-27T04:04:25.827Z,72.88
2019-01-27T04:05:29.339Z,73.59
2019-01-27T04:06:32.757Z,73.90
2019-01-27T04:07:36.185Z,74.52
2019-01-27T04:08:39.670Z,74.93
2019-01-27T04:09:43.093Z,74.93
2019-01-27T04:10:46.551Z,75.52
2019-01-27T04:11:49.976Z,75.67
2019-01-27T04:12:53.504Z,76.05
2019-01-27T04:13:56.985Z,75.92
2019-01-27T04:15:00.406Z,75.42
2019-01-27T04:16:03.992Z,75.30
2019-01-27T04:17:07.560Z,75.28
2019-01-27T04:18:10.980Z,75.29
2019-01-27T04:19:14.401Z,75.29
2019-01-27T04:20:21.961Z,75.36
2019-01-27T04:21:25.472Z,75.33
2019-01-27T04:22:28.900Z,75.39
2019-01-27T04:23:32.330Z,75.30
2019-01-27T04:24:35.771Z,75.24
2019-01-27T04:25:40.990Z,74.63
2019-01-27T04:26:44.441Z,74.69
2019-01-27T04:27:48.034Z,74.67
2019-01-27T04:28:51.528Z,74.43
2019-01-27T04:29:54.954Z,74.87
2019-01-27T04:30:58.381Z,74.81
2019-01-27T04:32:01.849Z,74.75
2019-01-27T04:33:05.545Z,75.10
2019-01-27T04:34:09.101Z,75.39
2019-01-27T04:35:13.097Z,75.51
2019-01-27T04:36:16.587Z,75.51
2019-01-27T04:37:20.105Z,76.00
2019-01-27T04:38:23.538Z,77.03
2019-01-27T04:39:27.040Z,76.90
2019-01-27T04:40:30.612Z,76.78
2019-01-27T04:41:34.115Z,76.37
2019-01-27T04:42:37.600Z,76.05
2019-01-27T04:43:41.164Z,75.84
2019-01-27T04:44:44.599Z,76.07
2019-01-27T04:45:48.095Z,76.10
2019-01-27T04:46:51.531Z,76.12
2019-01-27T04:47:54.969Z,75.91
2019-01-27T04:48:58.400Z,75.81
2019-01-27T04:50:01.837Z,76.16
2019-01-27T04:51:05.520Z,76.03
2019-01-27T04:52:09.007Z,75.81
2019-01-27T04:53:12.513Z,75.57
2019-01-27T04:54:16.008Z,75.35
2019-01-27T04:55:20.375Z,75.30
2019-01-27T04:56:23.805Z,75.64
2019-01-27T04:57:27.327Z,75.72
2019-01-27T04:58:30.847Z,75.77
2019-01-27T04:59:34.273Z,75.62
2019-01-27T05:00:37.777Z,75.77
2019-01-27T05:01:41.374Z,75.86
2019-01-27T05:02:46.600Z,76.16
2019-01-27T05:03:51.745Z,76.47
2019-01-27T05:04:55.172Z,76.51
2019-01-27T05:05:58.674Z,76.28
2019-01-27T05:07:02.201Z,76.05
2019-01-27T05:08:05.934Z,75.98
2019-01-27T05:09:09.886Z,75.73
2019-01-27T05:10:14.457Z,75.57
2019-01-27T05:11:17.957Z,75.60
2019-01-27T05:12:21.380Z,75.56
2019-01-27T05:13:24.897Z,75.74
2019-01-27T05:14:28.332Z,75.57
2019-01-27T05:15:32.998Z,75.68
2019-01-27T05:16:36.567Z,75.53
2019-01-27T05:17:40.078Z,75.25
2019-01-27T05:18:43.595Z,75.19
2019-01-27T05:19:47.156Z,75.04
2019-01-27T05:20:50.665Z,75.07
2019-01-27T05:21:54.169Z,75.18
2019-01-27T05:22:57.664Z,75.28
2019-01-27T05:24:01.118Z,74.97
2019-01-27T05:25:07.937Z,75.03
2019-01-27T05:26:11.368Z,75.02
2019-01-27T05:27:14.807Z,75.38
2019-01-27T05:28:18.313Z,75.57
2019-01-27T05:29:21.805Z,75.40
2019-01-27T05:30:26.370Z,75.23
2019-01-27T05:31:29.796Z,75.47
2019-01-27T05:32:33.221Z,75.14
2019-01-27T05:33:36.682Z,75.37
2019-01-27T05:34:40.156Z,75.81
2019-01-27T05:35:43.597Z,75.86
2019-01-27T05:36:47.219Z,75.56
2019-01-27T05:37:50.792Z,75.42
2019-01-27T05:38:54.257Z,75.29
2019-01-27T05:39:57.733Z,75.10
2019-01-27T05:41:01.169Z,75.00
2019-01-27T05:42:04.731Z,74.84
2019-01-27T05:43:08.187Z,74.68
2019-01-27T05:44:11.614Z,74.58
2019-01-27T05:45:16.582Z,74.65
2019-01-27T05:46:20.150Z,74.78
2019-01-27T05:47:23.573Z,74.90
2019-01-27T05:48:27.003Z,74.83
2019-01-27T05:49:30.521Z,74.69
2019-01-27T05:50:34.012Z,74.55
2019-01-27T05:51:37.440Z,74.22
2019-01-27T05:52:41.014Z,74.09
2019-01-27T05:53:44.525Z,73.95
2019-01-27T05:54:47.975Z,73.76
2019-01-27T05:55:51.392Z,73.59
2019-01-27T05:56:56.683Z,73.71
2019-01-27T05:57:59.965Z,73.63
2019-01-27T05:59:03.514Z,73.46
2019-01-27T06:00:10.063Z,73.30
2019-01-27T06:01:13.593Z,73.15
2019-01-27T06:02:17.079Z,73.13
2019-01-27T06:03:20.573Z,73.04
2019-01-27T06:04:24.040Z,72.92
2019-01-27T06:05:27.540Z,72.81
2019-01-27T06:06:30.962Z,72.77
2019-01-27T06:07:34.464Z,72.56
2019-01-27T06:08:37.898Z,72.60
2019-01-27T06:09:41.343Z,72.66
2019-01-27T06:10:44.872Z,72.66
2019-01-27T06:11:48.289Z,72.33
2019-01-27T06:12:51.788Z,72.40
2019-01-27T06:13:55.221Z,72.42
2019-01-27T06:14:58.661Z,72.35
2019-01-27T06:16:02.177Z,72.32
2019-01-27T06:17:05.729Z,72.38
2019-01-27T06:18:09.214Z,72.46
2019-01-27T06:19:12.647Z,72.99
2019-01-27T06:20:17.243Z,73.10
2019-01-27T06:21:20.682Z,73.16
2019-01-27T06:22:24.113Z,73.09
2019-01-27T06:23:27.585Z,73.02
2019-01-27T06:24:31.032Z,73.22
2019-01-27T06:25:34.613Z,73.46
2019-01-27T06:26:38.091Z,73.54
2019-01-27T06:27:41.486Z,73.41
2019-01-27T06:28:44.987Z,73.51
2019-01-27T06:29:48.524Z,73.56
2019-01-27T06:30:51.990Z,73.67
2019-01-27T06:31:55.443Z,73.52
2019-01-27T06:33:00.577Z,73.70
2019-01-27T06:34:04.316Z,73.50
2019-01-27T06:35:07.881Z,73.42
2019-01-27T06:36:11.334Z,73.30
2019-01-27T06:37:14.764Z,73.30
2019-01-27T06:38:18.189Z,73.27
2019-01-27T06:39:21.652Z,73.21
2019-01-27T06:40:25.115Z,73.44
2019-01-27T06:41:28.627Z,73.38
2019-01-27T06:42:32.071Z,73.78
2019-01-27T06:43:35.496Z,73.59
2019-01-27T06:44:38.988Z,73.65
2019-01-27T06:45:42.500Z,73.62
2019-01-27T06:46:45.957Z,73.52
2019-01-27T06:47:49.397Z,73.46
2019-01-27T06:48:52.837Z,73.60
2019-01-27T06:49:56.339Z,73.36
2019-01-27T06:50:59.766Z,73.56
2019-01-27T06:52:03.291Z,73.48
2019-01-27T06:53:06.965Z,73.51
2019-01-27T06:54:10.532Z,73.42
2019-01-27T06:55:21.292Z,73.32
2019-01-27T06:56:24.724Z,72.99
2019-01-27T06:57:28.166Z,72.83
2019-01-27T06:58:33.256Z,72.99
2019-01-27T06:59:38.323Z,73.06
2019-01-27T07:00:43.462Z,73.25
2019-01-27T07:01:48.594Z,73.31
2019-01-27T07:02:53.685Z,73.13
2019-01-27T07:04:01.582Z,73.01
2019-01-27T07:05:09.593Z,72.73
2019-01-27T07:06:20.648Z,72.61
2019-01-27T07:07:37.462Z,72.65
2019-01-27T07:08:44.996Z,72.65
2019-01-27T07:09:50.122Z,72.78
2019-01-27T07:11:11.120Z,72.90
2019-01-27T07:12:22.055Z,72.95
2019-01-27T07:13:30.046Z,72.54
2019-01-27T07:14:47.044Z,72.37
2019-01-27T07:15:54.728Z,72.33
2019-01-27T07:17:02.599Z,72.29
2019-01-27T07:18:19.221Z,72.47
2019-01-27T07:19:36.203Z,72.56
2019-01-27T07:20:53.055Z,72.41
2019-01-27T07:21:58.223Z,72.53
2019-01-27T07:23:03.285Z,72.73
2019-01-27T07:24:11.301Z,72.70
2019-01-27T07:25:19.235Z,72.76
2019-01-27T07:26:42.274Z,72.80
2019-01-27T07:27:50.276Z,72.66
2019-01-27T07:28:58.141Z,72.58
2019-01-27T07:30:09.010Z,72.49
2019-01-27T07:31:28.778Z,72.56
2019-01-27T07:32:45.830Z,72.67
2019-01-27T07:34:02.488Z,72.40
2019-01-27T07:35:13.530Z,72.25
2019-01-27T07:36:21.268Z,72.27
2019-01-27T07:37:32.000Z,72.30
2019-01-27T07:38:37.061Z,72.53
2019-01-27T07:39:42.188Z,72.78
2019-01-27T07:40:55.813Z,72.81
2019-01-27T07:42:00.964Z,72.84
2019-01-27T07:43:17.827Z,72.89
2019-01-27T07:44:25.508Z,72.82
2019-01-27T07:45:30.764Z,72.74
2019-01-27T07:46:35.890Z,72.64
2019-01-27T07:47:50.049Z,72.56
2019-01-27T07:49:04.064Z,72.57
2019-01-27T07:50:12.042Z,72.87
2019-01-27T07:51:17.125Z,72.88
2019-01-27T07:52:25.077Z,72.99
2019-01-27T07:53:38.916Z,72.82
2019-01-27T07:54:53.126Z,72.64
2019-01-27T07:56:01.028Z,72.80
2019-01-27T07:57:06.441Z,72.65
2019-01-27T07:58:11.511Z,72.70
2019-01-27T07:59:16.580Z,72.70
2019-01-27T08:00:37.364Z,72.62
2019-01-27T08:01:51.328Z,72.39
2019-01-27T08:03:11.798Z,72.36
2019-01-27T08:04:20.668Z,72.16
2019-01-27T08:05:40.473Z,71.94
2019-01-27T08:07:00.384Z,71.89
2019-01-27T08:08:05.448Z,71.83
2019-01-27T08:09:13.955Z,71.92
2019-01-27T08:10:33.848Z,72.01
2019-01-27T08:11:44.920Z,72.12
2019-01-27T08:12:52.485Z,72.30
2019-01-27T08:14:06.561Z,72.44
2019-01-27T08:15:30.639Z,72.52
2019-01-27T08:16:38.445Z,72.55
2019-01-27T08:17:43.584Z,72.56
2019-01-27T08:18:48.790Z,72.37
2019-01-27T08:20:02.497Z,72.14
2019-01-27T08:21:10.355Z,72.25
2019-01-27T08:22:17.859Z,72.05
2019-01-27T08:23:22.938Z,71.90
2019-01-27T08:24:43.983Z,71.92
2019-01-27T08:26:00.883Z,71.93
2019-01-27T08:27:06.195Z,71.98
2019-01-27T08:28:14.073Z,71.86
2019-01-27T08:29:24.822Z,71.75
2019-01-27T08:30:29.969Z,71.64
2019-01-27T08:31:35.097Z,71.55
2019-01-27T08:32:52.025Z,71.48
2019-01-27T08:34:03.100Z,71.48
2019-01-27T08:35:12.899Z,71.43
2019-01-27T08:36:20.403Z,71.30
2019-01-27T08:37:25.618Z,71.22
2019-01-27T08:38:30.793Z,71.15
2019-01-27T08:39:38.665Z,70.98
2019-01-27T08:41:01.943Z,71.17
2019-01-27T08:42:12.985Z,71.09
2019-01-27T08:43:33.882Z,71.11
2019-01-27T08:44:45.064Z,70.88
2019-01-27T08:45:55.840Z,70.84
2019-01-27T08:46:59.339Z,70.96
2019-01-27T08:48:02.898Z,71.10
2019-01-27T08:49:06.420Z,71.07
2019-01-27T08:50:12.884Z,71.08
2019-01-27T08:51:16.403Z,71.22
2019-01-27T08:52:19.968Z,71.28
2019-01-27T08:53:23.494Z,71.19
2019-01-27T08:54:26.997Z,71.25
2019-01-27T08:55:30.506Z,71.12
2019-01-27T08:56:33.982Z,71.00
2019-01-27T08:57:37.473Z,70.92
2019-01-27T08:58:41.012Z,70.66
2019-01-27T08:59:44.510Z,70.72
2019-01-27T09:00:49.904Z,70.83
2019-01-27T09:01:55.016Z,70.96
2019-01-27T09:03:06.026Z,71.05
2019-01-27T09:04:11.200Z,71.37
2019-01-27T09:05:16.540Z,71.58
2019-01-27T09:06:24.587Z,71.42
2019-01-27T09:07:29.760Z,71.57
2019-01-27T09:08:40.687Z,71.86
2019-01-27T09:09:48.455Z,71.47
2019-01-27T09:10:59.173Z,71.57
2019-01-27T09:12:19.096Z,71.54
2019-01-27T09:13:27.092Z,71.37
2019-01-27T09:14:32.179Z,71.10
2019-01-27T09:15:43.137Z,70.95
2019-01-27T09:16:48.199Z,71.10
2019-01-27T09:18:02.143Z,71.00
2019-01-27T09:19:12.629Z,70.87
2019-01-27T09:20:20.564Z,70.73
2019-01-27T09:21:43.436Z,70.63
2019-01-27T09:23:04.705Z,70.45
2019-01-27T09:24:25.513Z,70.14
2019-01-27T09:25:33.561Z,70.71
2019-01-27T09:26:38.820Z,70.41
2019-01-27T09:27:52.979Z,70.39
2019-01-27T09:28:58.150Z,70.50
2019-01-27T09:30:06.257Z,70.55
2019-01-27T09:31:11.463Z,70.17
2019-01-27T09:32:16.523Z,70.21
2019-01-27T09:33:27.301Z,70.08
2019-01-27T09:34:35.078Z,69.90
2019-01-27T09:35:55.990Z,70.00
2019-01-27T09:37:01.138Z,70.06
2019-01-27T09:38:22.218Z,69.98
2019-01-27T09:39:30.001Z,69.97
2019-01-27T09:40:40.762Z,70.17
2019-01-27T09:41:54.595Z,70.02
2019-01-27T09:42:59.759Z,70.01
2019-01-27T09:44:16.672Z,69.85
2019-01-27T09:45:21.818Z,69.70
2019-01-27T09:46:44.673Z,69.80
2019-01-27T09:48:04.761Z,69.55
2019-01-27T09:49:18.690Z,69.61
2019-01-27T09:50:26.445Z,69.49
2019-01-27T09:51:34.358Z,69.14
2019-01-27T09:52:45.279Z,69.28
2019-01-27T09:53:50.408Z,69.06
2019-01-27T09:55:07.656Z,69.00
2019-01-27T09:56:18.190Z,68.76
2019-01-27T09:57:38.187Z,68.74
2019-01-27T09:58:49.003Z,68.42
2019-01-27T09:59:54.137Z,68.60
2019-01-27T10:00:59.268Z,68.52
2019-01-27T10:02:20.506Z,68.87
2019-01-27T10:03:28.407Z,68.65
2019-01-27T10:04:33.539Z,68.75
2019-01-27T10:05:44.234Z,68.53
2019-01-27T10:06:49.389Z,68.69
2019-01-27T10:07:54.458Z,68.61
2019-01-27T10:09:08.319Z,68.59
2019-01-27T10:10:13.534Z,68.48
2019-01-27T10:11:26.463Z,68.35
2019-01-27T10:12:37.133Z,68.29
2019-01-27T10:13:42.275Z,68.34
2019-01-27T10:14:47.530Z,68.23
2019-01-27T10:15:52.685Z,68.17
2019-01-27T10:17:00.535Z,68.04
2019-01-27T10:18:08.567Z,68.00
2019-01-27T10:19:19.298Z,67.96
2019-01-27T10:20:24.363Z,67.71
2019-01-27T10:21:29.900Z,67.63
2019-01-27T10:22:35.056Z,67.60
2019-01-27T10:23:40.125Z,67.45
2019-01-27T10:24:51.111Z,67.33
2019-01-27T10:26:01.824Z,67.41
2019-01-27T10:27:16.202Z,67.38
2019-01-27T10:28:23.741Z,67.31
2019-01-27T10:29:28.811Z,67.25
2019-01-27T10:30:36.778Z,67.17
2019-01-27T10:31:56.915Z,67.13
2019-01-27T10:33:02.029Z,66.94
2019-01-27T10:34:23.027Z,66.99
2019-01-27T10:35:42.711Z,66.83
2019-01-27T10:36:46.806Z,66.64
2019-01-27T10:37:57.675Z,66.61
2019-01-27T10:39:02.763Z,66.51
2019-01-27T10:40:10.948Z,66.12
2019-01-27T10:41:24.971Z,66.31
2019-01-27T10:42:32.540Z,66.11
2019-01-27T10:43:40.439Z,66.26
2019-01-27T10:44:57.218Z,66.11
2019-01-27T10:46:07.976Z,65.17
2019-01-27T10:47:21.710Z,65.75
2019-01-27T10:48:44.754Z,65.68
2019-01-27T10:50:07.771Z,65.42
2019-01-27T10:51:15.828Z,65.40
2019-01-27T10:52:32.982Z,64.99
2019-01-27T10:53:44.189Z,64.61
2019-01-27T10:54:58.700Z,64.45
2019-01-27T10:56:03.873Z,64.78
2019-01-27T10:57:11.744Z,64.52
2019-01-27T10:58:16.831Z,64.53
2019-01-27T10:59:21.912Z,63.80
2019-01-27T11:00:27.233Z,64.34
2019-01-27T11:01:35.165Z,64.38
2019-01-27T11:02:55.112Z,64.17
2019-01-27T11:04:15.191Z,64.19
2019-01-27T11:05:23.057Z,64.03
2019-01-27T11:06:30.935Z,63.76
2019-01-27T11:07:41.986Z,62.99
2019-01-27T11:08:47.048Z,63.33
2019-01-27T11:09:55.001Z,62.85
2019-01-27T11:11:05.654Z,63.07
2019-01-27T11:12:16.484Z,62.85
2019-01-27T11:13:39.356Z,62.72
2019-01-27T11:14:50.472Z,62.57
2019-01-27T11:16:01.204Z,61.46
2019-01-27T11:17:09.267Z,61.76
2019-01-27T11:18:30.616Z,61.81
2019-01-27T11:19:35.753Z,62.13
2019-01-27T11:20:40.943Z,62.04
2019-01-27T11:21:48.939Z,61.98
2019-01-27T11:22:53.988Z,62.01
2019-01-27T11:23:59.138Z,61.54
2019-01-27T11:25:20.074Z,60.21
2019-01-27T11:26:25.265Z,61.19
2019-01-27T11:27:46.169Z,60.97
2019-01-27T11:28:57.185Z,60.99
2019-01-27T11:30:02.321Z,60.69
2019-01-27T11:31:07.422Z,61.06
2019-01-27T11:32:18.602Z,60.75
2019-01-27T11:33:26.209Z,60.11
2019-01-27T11:34:31.280Z,59.47
2019-01-27T11:35:39.082Z,60.26
2019-01-27T11:36:46.801Z,59.83
2019-01-27T11:37:54.721Z,59.96
2019-01-27T11:39:02.508Z,60.42
2019-01-27T11:40:16.297Z,59.08
2019-01-27T11:41:29.848Z,59.87
2019-01-27T11:42:35.065Z,59.54
2019-01-27T11:43:46.150Z,59.62
2019-01-27T11:44:54.023Z,59.94
2019-01-27T11:46:08.040Z,60.32
2019-01-27T11:47:16.139Z,60.32
2019-01-27T11:48:27.014Z,60.19
2019-01-27T11:49:40.846Z,60.42
2019-01-27T11:50:46.098Z,60.13
2019-01-27T11:51:49.618Z,60.45
2019-01-27T11:52:54.413Z,60.71
2019-01-27T11:53:57.835Z,60.74
2019-01-27T11:55:01.414Z,60.86
2019-01-27T11:56:05.092Z,60.80
2019-01-27T11:57:08.619Z,60.86
2019-01-27T11:58:12.046Z,60.77
2019-01-27T11:59:15.463Z,59.58
2019-01-27T12:00:20.791Z,60.31
2019-01-27T12:01:24.396Z,60.57
2019-01-27T12:02:28.003Z,60.24
2019-01-27T12:03:31.500Z,59.14
2019-01-27T12:04:35.125Z,60.05
2019-01-27T12:05:38.536Z,60.18
2019-01-27T12:06:41.970Z,59.90
2019-01-27T12:07:45.572Z,59.73
2019-01-27T12:08:48.991Z,59.22
2019-01-27T12:09:52.567Z,59.38
2019-01-27T12:10:56.123Z,59.52
2019-01-27T12:11:59.920Z,59.89
2019-01-27T12:13:03.444Z,59.39
2019-01-27T12:14:07.039Z,60.08
2019-01-27T12:15:13.995Z,60.19
2019-01-27T12:16:17.412Z,59.91
2019-01-27T12:17:20.992Z,59.65
2019-01-27T12:18:24.433Z,59.51
2019-01-27T12:19:27.928Z,59.48
2019-01-27T12:20:31.360Z,59.53
2019-01-27T12:21:34.857Z,59.63
2019-01-27T12:22:38.285Z,59.36
2019-01-27T12:23:41.800Z,59.66
2019-01-27T12:24:45.243Z,59.35
2019-01-27T12:25:48.667Z,59.74
2019-01-27T12:26:52.086Z,59.94
2019-01-27T12:27:55.587Z,60.04
2019-01-27T12:28:59.032Z,59.77
2019-01-27T12:30:02.489Z,59.91
2019-01-27T12:31:06.005Z,59.89
2019-01-27T12:32:09.523Z,60.00
2019-01-27T12:33:13.018Z,59.51
2019-01-27T12:34:16.611Z,59.10
2019-01-27T12:35:20.134Z,59.75
2019-01-27T12:36:23.619Z,59.84
2019-01-27T12:37:27.054Z,59.86
2019-01-27T12:38:30.553Z,59.83
2019-01-27T12:39:34.152Z,59.56
2019-01-27T12:40:37.719Z,59.28
2019-01-27T12:41:41.273Z,59.71
2019-01-27T12:42:44.835Z,59.95
2019-01-27T12:43:48.279Z,60.21
2019-01-27T12:44:51.798Z,60.31
2019-01-27T12:45:55.247Z,60.02
2019-01-27T12:46:58.815Z,60.08
2019-01-27T12:48:02.273Z,60.12
2019-01-27T12:49:05.766Z,60.17
2019-01-27T12:50:12.154Z,60.16
2019-01-27T12:51:15.600Z,60.18
2019-01-27T12:52:19.192Z,60.16
2019-01-27T12:53:22.690Z,59.28
2019-01-27T12:54:26.180Z,59.68
2019-01-27T12:55:29.737Z,59.68
2019-01-27T12:56:33.290Z,59.56
2019-01-27T12:57:36.763Z,58.85
2019-01-27T12:58:40.267Z,59.45
2019-01-27T12:59:43.696Z,59.21
2019-01-27T13:00:50.486Z,59.52
2019-01-27T13:01:54.050Z,59.41
2019-01-27T13:02:57.544Z,59.29
2019-01-27T13:04:01.035Z,59.14
2019-01-27T13:05:10.236Z,58.88
2019-01-27T13:06:10.683Z,59.14
2019-01-27T13:07:14.180Z,59.13
2019-01-27T13:08:17.672Z,58.82
2019-01-27T13:09:21.164Z,58.30
2019-01-27T13:10:24.591Z,58.27
2019-01-27T13:11:28.040Z,58.90
2019-01-27T13:12:31.475Z,58.80
2019-01-27T13:13:34.970Z,58.83
2019-01-27T13:14:38.395Z,58.88
2019-01-27T13:15:41.844Z,59.27
2019-01-27T13:16:45.346Z,58.20
2019-01-27T13:17:48.930Z,58.57
2019-01-27T13:18:52.412Z,58.81
2019-01-27T13:19:55.840Z,59.19
2019-01-27T13:20:59.252Z,58.95
2019-01-27T13:22:02.768Z,59.21
2019-01-27T13:23:06.200Z,59.23
2019-01-27T13:24:09.702Z,59.19
2019-01-27T13:25:15.772Z,59.11
2019-01-27T13:26:19.345Z,58.99
2019-01-27T13:27:22.806Z,59.03
2019-01-27T13:28:26.228Z,58.83
2019-01-27T13:29:29.692Z,58.87
2019-01-27T13:30:33.230Z,58.77
2019-01-27T13:31:36.731Z,58.42
2019-01-27T13:32:40.142Z,58.69
2019-01-27T13:33:43.572Z,58.49
2019-01-27T13:34:47.006Z,58.81
2019-01-27T13:35:50.572Z,58.53
2019-01-27T13:36:54.062Z,58.72
2019-01-27T13:37:57.542Z,58.35
2019-01-27T13:39:00.971Z,58.25
2019-01-27T13:40:07.027Z,58.21
2019-01-27T13:41:10.538Z,58.15
2019-01-27T13:42:13.997Z,58.53
2019-01-27T13:43:17.411Z,58.56
2019-01-27T13:44:20.844Z,58.12
2019-01-27T13:45:31.801Z,58.37
2019-01-27T13:46:35.304Z,58.66
2019-01-27T13:47:38.761Z,58.14
2019-01-27T13:48:42.268Z,58.42
2019-01-27T13:49:45.695Z,58.26
2019-01-27T13:50:49.125Z,58.67
2019-01-27T13:51:52.819Z,58.16
2019-01-27T13:52:57.173Z,58.41
2019-01-27T13:54:00.661Z,58.74
2019-01-27T13:55:06.282Z,58.81
2019-01-27T13:56:09.872Z,58.98
2019-01-27T13:57:13.303Z,59.32
2019-01-27T13:58:16.880Z,59.29
2019-01-27T13:59:20.309Z,59.64
2019-01-27T14:00:29.349Z,59.56
2019-01-27T14:01:32.838Z,59.54
2019-01-27T14:02:36.323Z,59.66
2019-01-27T14:03:39.764Z,59.68
2019-01-27T14:04:48.400Z,59.60
2019-01-27T14:05:48.403Z,59.47
2019-01-27T14:06:51.826Z,59.53
2019-01-27T14:07:55.411Z,59.46